CW5920 Weather Reports


Display with metric or nautical units.
time (UTC)temp
F
wind
direction
speed
MPH
gust
MPH
rain 1hr
in
rain 24hr
in
rain mn
in
humidity
%
barometer
mb
20240521174017 84 180 11.0 18.0 0.00 0.00 0.00 78 1008.6
20240521173017 82 180 7.0 11.0 0.00 0.00 0.00 82 1009.0
20240521172018 80 203 7.0 11.0 0.00 0.00 0.00 83 1009.0
20240521171017 80 203 5.0 10.0 0.00 0.00 0.00 82 1009.3
20240521170018 80 203 2.0 6.0 0.00 0.00 0.00 83 1009.4
20240521165017 80 203 4.0 8.0 0.00 0.00 0.00 83 1009.3
20240521164017 79 203 3.0 8.0 0.00 0.00 0.00 83 1009.3
20240521163057 79 203 3.0 9.0 0.00 0.00 0.00 83 1009.2
20240521162017 79 203 2.0 8.0 0.00 0.00 0.00 83 1009.3
20240521161016 79 203 2.0 11.0 0.00 0.00 0.00 83 1009.2
20240521160017 79 203 2.0 6.0 0.00 0.00 0.00 83 1009.3
20240521155037 79 225 1.0 4.0 0.00 0.00 0.00 82 1009.4
20240521154017 79 225 2.0 4.0 0.00 0.00 0.00 82 1009.4
20240521153058 79 203 3.0 9.0 0.00 0.00 0.00 82 1009.2
20240521152017 80 225 5.0 17.0 0.00 0.00 0.00 82 1009.1
20240521151017 80 225 5.0 14.0 0.00 0.00 0.00 82 1008.9
20240521150058 80 203 6.0 15.0 0.00 0.00 0.00 81 1008.8
20240521145017 80 203 11.0 23.0 0.00 0.00 0.00 82 1007.9
20240521144017 80 203 11.0 20.0 0.00 0.00 0.00 83 1007.9
20240521143017 79 203 10.0 22.0 0.00 0.00 0.00 83 1007.8
20240521142015 79 203 11.0 19.0 0.00 0.00 0.00 84 1007.9
20240521141017 79 203 11.0 20.0 0.00 0.00 0.00 86 1008.0
20240521140018 78 180 8.0 15.0 0.00 0.00 0.00 87 1008.0
20240521135037 78 180 12.0 22.0 0.00 0.00 0.00 87 1007.9
20240521134017 77 203 13.0 19.0 0.00 0.00 0.00 89 1007.9
20240521133037 76 203 10.0 21.0 0.00 0.00 0.00 89 1007.7
20240521132017 76 180 13.0 23.0 0.00 0.00 0.00 89 1007.5
20240521131017 76 180 11.0 19.0 0.00 0.00 0.00 89 1007.7
20240521130037 76 180 12.0 22.0 0.00 0.00 0.00 89 1007.6
20240521125017 75 180 11.0 18.0 0.00 0.00 0.00 89 1007.7
20240521124018 75 180 11.0 20.0 0.00 0.00 0.00 88 1007.6
20240521123016 75 180 14.0 23.0 0.00 0.00 0.00 88 1007.6
20240521122037 75 180 11.0 18.0 0.00 0.00 0.00 88 1007.8
20240521121017 75 180 10.0 20.0 0.00 0.00 0.00 87 1007.7
20240521120017 75 180 10.0 19.0 0.00 0.00 0.00 87 1007.6
20240521115037 75 180 12.0 21.0 0.00 0.00 0.00 87 1007.3
20240521114017 75 203 12.0 19.0 0.00 0.00 0.00 88 1007.3
20240521113017 75 180 8.0 18.0 0.00 0.00 0.00 88 1007.3
20240521112017 75 180 12.0 19.0 0.00 0.00 0.00 88 1007.2
20240521111017 75 203 9.0 20.0 0.00 0.00 0.00 88 1007.3
20240521110017 75 203 10.0 19.0 0.00 0.00 0.00 88 1007.3
20240521105017 75 180 11.0 19.0 0.00 0.00 0.00 88 1007.4
20240521104017 75 180 11.0 18.0 0.00 0.00 0.00 89 1007.6
20240521103017 75 203 9.0 17.0 0.00 0.00 0.00 88 1007.5
20240521102017 75 180 10.0 19.0 0.00 0.00 0.00 88 1007.5
20240521101017 75 180 9.0 15.0 0.00 0.00 0.00 88 1007.5
20240521100017 76 180 8.0 13.0 0.00 0.00 0.00 88 1007.5
20240521095017 76 180 10.0 20.0 0.00 0.00 0.00 88 1007.5
20240521094017 76 180 11.0 25.0 0.00 0.00 0.00 88 1007.5
20240521093017 76 180 8.0 16.0 0.00 0.00 0.00 89 1007.7
20240521092017 76 180 10.0 16.0 0.00 0.00 0.00 89 1007.7
20240521091017 76 180 11.0 18.0 0.00 0.00 0.00 89 1007.4
20240521090017 76 180 9.0 15.0 0.00 0.00 0.00 88 1007.3
20240521085017 76 180 9.0 19.0 0.00 0.00 0.00 88 1007.3
20240521084017 76 180 10.0 16.0 0.00 0.00 0.00 88 1007.3
20240521083017 76 180 11.0 18.0 0.00 0.00 0.00 87 1007.1
20240521082017 76 180 10.0 16.0 0.00 0.00 0.00 87 1007.1
20240521081017 76 180 10.0 18.0 0.00 0.00 0.00 87 1007.1
20240521080017 76 180 13.0 21.0 0.00 0.00 0.00 87 1006.9
20240521075017 76 180 12.0 20.0 0.00 0.00 0.00 87 1006.9
20240521074017 76 180 12.0 22.0 0.00 0.00 0.00 87 1007.0
20240521073017 76 180 13.0 23.0 0.00 0.00 0.00 86 1007.2
20240521072017 76 180 12.0 22.0 0.00 0.00 0.00 86 1007.3
20240521071017 77 180 12.0 18.0 0.00 0.00 0.00 85 1007.5
20240521070017 77 158 12.0 19.0 0.00 0.00 0.00 84 1007.5
20240521065017 77 158 14.0 20.0 0.00 0.00 0.00 84 1007.5
20240521064017 77 180 14.0 24.0 0.00 0.00 0.00 83 1007.9
20240521063017 77 180 13.0 20.0 0.00 0.00 0.00 82 1007.6
20240521062017 77 158 12.0 18.0 0.00 0.00 0.00 81 1007.9
20240521061017 78 158 11.0 19.0 0.00 0.00 0.00 80 1007.8
20240521060017 78 158 11.0 16.0 0.00 0.00 0.00 79 1008.0
20240521055017 78 158 13.0 20.0 0.00 0.00 0.00 78 1008.2
20240521054017 78 158 10.0 16.0 0.00 0.00 0.00 78 1008.3
20240521053017 78 158 10.0 17.0 0.00 0.00 0.00 78 1008.3
20240521052017 78 158 9.0 16.0 0.00 0.00 0.00 79 1008.3
20240521051017 78 158 10.0 16.0 0.00 0.00 0.00 80 1008.3
20240521050017 78 158 9.0 13.0 0.00 0.00 0.00 80 1008.3
20240521045016 78 158 9.0 14.0 0.00 0.00 0.00 80 1008.4
20240521044016 78 158 10.0 15.0 0.00 0.00 0.00 80 1008.5
20240521043056 78 158 9.0 13.0 0.00 0.00 0.00 81 1008.6
20240521042016 78 158 9.0 14.0 0.00 0.00 0.00 81 1008.6
20240521041016 78 158 9.0 16.0 0.00 0.00 0.00 81 1008.5
20240521040016 78 158 9.0 15.0 0.00 0.00 0.00 81 1008.5
20240521035036 78 158 9.0 14.0 0.00 0.00 0.00 81 1008.4
20240521034016 78 158 8.0 12.0 0.00 0.00 0.00 81 1008.3
20240521033016 79 158 8.0 13.0 0.00 0.00 0.00 81 1008.3
20240521032016 79 158 8.0 12.0 0.00 0.00 0.00 81 1008.3
20240521031016 79 158 8.0 11.0 0.00 0.00 0.00 80 1008.3
20240521030016 79 158 7.0 11.0 0.00 0.00 0.00 80 1008.0
20240521025016 79 158 7.0 12.0 0.00 0.00 0.00 80 1008.1
20240521024016 80 158 7.0 10.0 0.00 0.00 0.00 79 1008.0
20240521023016 80 158 7.0 11.0 0.00 0.00 0.00 78 1008.1
20240521022016 80 158 7.0 10.0 0.00 0.00 0.00 77 1008.0
20240521021016 81 158 6.0 10.0 0.00 0.00 0.00 76 1007.9
20240521020016 81 158 8.0 15.0 0.00 0.00 0.00 75 1007.8
20240521015016 81 158 8.0 12.0 0.00 0.00 0.00 75 1007.9
20240521014016 81 158 7.0 10.0 0.00 0.00 0.00 75 1007.7
20240521013016 82 158 9.0 14.0 0.00 0.00 0.00 74 1007.7
20240521012016 82 158 8.0 13.0 0.00 0.00 0.00 73 1007.4
20240521011016 82 158 8.0 14.0 0.00 0.00 0.00 73 1007.5
20240521010016 83 158 7.0 12.0 0.00 0.00 0.00 73 1007.4
20240521005016 83 158 7.0 10.0 0.00 0.00 0.00 72 1007.4
20240521004016 83 158 8.0 13.0 0.00 0.00 0.00 71 1007.2
20240521003016 83 158 9.0 16.0 0.00 0.00 0.00 70 1007.0
20240521002056 84 180 10.0 17.0 0.00 0.00 0.00 70 1007.2
20240521001016 84 158 10.0 14.0 0.00 0.00 0.00 69 1007.2
20240521000016 85 158 10.0 19.0 0.00 0.00 0.00 69 1007.2
20240520235016 85 158 13.0 20.0 0.00 0.00 0.00 68 1007.1
20240520234016 85 158 12.0 19.0 0.00 0.00 0.00 68 1007.2
20240520233016 85 158 11.0 19.0 0.00 0.00 0.00 67 1007.2
20240520232016 86 158 12.0 19.0 0.00 0.00 0.00 65 1007.2
20240520231016 86 180 11.0 18.0 0.00 0.00 0.00 65 1007.4
20240520230016 86 158 13.0 23.0 0.00 0.00 0.00 64 1007.4
20240520225016 87 180 12.0 22.0 0.00 0.00 0.00 65 1007.5
20240520224016 87 180 12.0 20.0 0.00 0.00 0.00 63 1007.5
20240520223016 87 158 12.0 18.0 0.00 0.00 0.00 63 1007.6
20240520222016 88 180 11.0 21.0 0.00 0.00 0.00 63 1007.6
20240520221016 88 158 13.0 18.0 0.00 0.00 0.00 63 1007.7
20240520220036 88 158 12.0 20.0 0.00 0.00 0.00 62 1007.7
20240520215016 88 180 11.0 17.0 0.00 0.00 0.00 63 1007.8
20240520214036 88 180 14.0 24.0 0.00 0.00 0.00 62 1007.8
20240520213016 88 180 14.0 22.0 0.00 0.00 0.00 62 1007.9
20240520212016 88 158 11.0 17.0 0.00 0.00 0.00 64 1008.0
20240520211016 88 158 13.0 21.0 0.00 0.00 0.00 63 1008.2
20240520210016 89 158 14.0 21.0 0.00 0.00 0.00 61 1008.2
20240520205016 89 180 11.0 19.0 0.00 0.00 0.00 61 1008.5
20240520204016 89 203 11.0 18.0 0.00 0.00 0.00 61 1008.7
20240520203016 89 180 11.0 17.0 0.00 0.00 0.00 62 1008.7
20240520202016 88 180 12.0 18.0 0.00 0.00 0.00 62 1008.9
20240520201016 88 158 14.0 21.0 0.00 0.00 0.00 62 1009.1
20240520200015 89 180 12.0 20.0 0.00 0.00 0.00 63 1009.1
20240520195016 88 180 11.0 15.0 0.00 0.00 0.00 64 1009.2
20240520194036 88 180 11.0 20.0 0.00 0.00 0.00 63 1009.2
20240520193016 88 180 12.0 20.0 0.00 0.00 0.00 64 1009.2
20240520192016 88 158 13.0 20.0 0.00 0.00 0.00 64 1009.3
20240520191016 87 180 14.0 21.0 0.00 0.00 0.00 62 1009.3
20240520190016 87 158 15.0 26.0 0.00 0.00 0.00 62 1009.6
20240520185116 88 158 12.0 22.0 0.00 0.00 0.00 64 1009.8
20240520184015 87 180 12.0 19.0 0.00 0.00 0.00 63 1009.9
20240520183036 87 180 11.0 18.0 0.00 0.00 0.00 64 1010.0
20240520182016 87 180 12.0 22.0 0.00 0.00 0.00 64 1010.0
20240520181015 86 180 10.0 20.0 0.00 0.00 0.00 63 1010.1
20240520180016 86 180 13.0 21.0 0.00 0.00 0.00 63 1010.3
20240520175016 87 158 13.0 22.0 0.00 0.00 0.00 65 1010.2